Time;durP1;ratioP1;P1;durP2;ratioP2;P2;SDS_P1;SDS_P2;PMS_P1;PMS_P2;Temp;Humidity;BMP_temperature;BMP_pressure;BME280_temperature;BME280_humidity;BME280_pressure;Samples;Min_cycle;Max_cycle;Signal;HPM_P1;HPM_P2
2023/03/03 00:02:27;;;;;;;82.63;29.42;;;1.80;63.80;;;-3.37;100.00;95626.88;4973586;28;20033;-46
2023/03/03 00:04:54;;;;;;;91.72;30.75;;;1.80;63.90;;;-3.37;100.00;95623.47;4974459;28;20029;-45
2023/03/03 00:07:22;;;;;;;80.85;29.20;;;1.80;63.80;;;-3.38;100.00;95622.66;4979274;28;20112;-49
2023/03/03 00:09:49;;;;;;;90.03;31.42;;;1.80;63.80;;;-3.37;100.00;95626.06;4939247;28;20494;-48
2023/03/03 00:12:29;;;;;;;85.38;30.65;;;1.80;64.00;;;-3.40;100.00;95626.44;4967365;28;20018;-48
2023/03/03 00:14:56;;;;;;;93.00;30.95;;;1.80;64.10;;;-3.41;100.00;95628.22;4944107;28;20036;-50
2023/03/03 00:17:34;;;;;;;88.03;30.45;;;1.80;63.90;;;-3.42;100.00;95626.59;4987311;28;20030;-49
2023/03/03 00:20:33;;;;;;;81.07;26.58;;;1.80;64.10;;;-3.43;100.00;95629.38;4963218;28;20046;-46
2023/03/03 00:23:42;;;;;;;79.95;28.42;;;1.80;64.90;;;-3.41;100.00;95627.41;4962617;28;20091;-47
2023/03/03 00:26:35;;;;;;;79.97;28.55;;;1.80;64.10;;;-3.41;100.00;95622.22;4972710;28;20029;-48
2023/03/03 00:29:18;;;;;;;;;;;1.80;64.10;;;-3.38;100.00;95627.06;4975604;28;20049;-47
2023/03/03 00:31:43;;;;;;;83.90;28.63;;;1.80;63.80;;;-3.37;100.00;95632.09;4955968;28;20484;-50
2023/03/03 00:34:26;;;;;;;80.82;27.13;;;1.80;64.00;;;-3.36;100.00;95623.28;4970834;28;20141;-48
2023/03/03 00:36:57;;;;;;;;;;;1.80;65.00;;;-3.30;100.00;95632.19;4957307;28;20071;-48
2023/03/03 00:39:37;;;;;;;84.03;28.80;;;1.90;64.10;;;-3.24;100.00;95630.69;4965027;28;20055;-46
2023/03/03 00:42:14;;;;;;;86.13;29.17;;;1.90;64.30;;;-3.14;100.00;95620.78;4953010;28;20075;-49
2023/03/03 00:45:00;;;;;;;94.00;33.08;;;1.90;64.50;;;-2.99;100.00;95624.22;4964301;28;20311;-47
2023/03/03 00:47:41;;;;;;;97.03;32.40;;;2.00;64.70;;;-2.90;100.00;95619.75;4970760;28;20057;-50
2023/03/03 00:50:33;;;;;;;98.07;31.73;;;2.10;64.80;;;-2.79;100.00;95624.50;4966088;28;20477;-49
2023/03/03 00:53:10;;;;;;;81.35;29.88;;;2.30;65.00;;;-2.70;100.00;95625.22;4972098;28;20121;-48
2023/03/03 00:55:39;;;;;;;96.43;33.00;;;2.30;64.90;;;-2.63;100.00;95621.72;4965732;28;20659;-46
2023/03/03 00:58:06;;;;;;;90.57;29.80;;;2.40;65.00;;;-2.53;100.00;95624.03;4974845;28;20054;-47
2023/03/03 01:00:36;;;;;;;94.47;32.30;;;2.50;65.00;;;-2.43;100.00;95623.75;4952710;28;20018;-50
2023/03/03 01:03:23;;;;;;;93.13;32.92;;;2.60;65.10;;;-2.35;100.00;95628.84;4971794;28;20037;-48
2023/03/03 01:05:53;;;;;;;94.63;33.47;;;2.70;65.10;;;-2.27;100.00;95620.94;4953043;28;20022;-50
2023/03/03 01:08:21;;;;;;;104.53;34.38;;;2.80;65.10;;;-2.19;100.00;95620.84;4937603;28;20788;-47
2023/03/03 01:11:16;;;;;;;92.72;34.20;;;2.90;65.10;;;-2.10;100.00;95624.94;4964786;28;20026;-47
2023/03/03 01:13:51;;;;;;;87.78;32.78;;;3.00;65.10;;;-2.10;100.00;95616.28;4956823;28;20026;-47
2023/03/03 01:16:27;;;;;;;99.40;34.97;;;3.10;65.00;;;-2.07;100.00;95617.72;4973575;28;20380;-48
2023/03/03 01:18:56;;;;;;;82.20;30.38;;;3.20;65.00;;;-1.94;100.00;95621.31;4984049;28;20018;-49
2023/03/03 01:21:25;;;;;;;90.40;32.45;;;3.20;64.90;;;-1.84;100.00;95607.13;4971881;28;20535;-48
2023/03/03 01:23:51;;;;;;;97.10;32.85;;;3.30;65.00;;;-1.74;100.00;95613.66;4950806;28;20058;-48
2023/03/03 01:26:20;;;;;;;91.90;32.75;;;3.40;65.10;;;-1.70;100.00;95604.44;4950565;28;20390;-48
2023/03/03 01:28:48;;;;;;;94.20;33.10;;;3.40;65.00;;;-1.62;100.00;95611.34;4950174;28;20101;-48
2023/03/03 01:31:14;;;;;;;75.85;29.70;;;3.50;65.00;;;-1.57;100.00;95611.56;4959274;28;20925;-51
2023/03/03 01:34:01;;;;;;;86.95;30.40;;;3.60;64.80;;;-1.51;100.00;95615.25;4938018;28;20178;-50
2023/03/03 01:36:33;;;;;;;89.10;31.10;;;3.70;65.70;;;-1.45;100.00;95615.31;4960969;28;20108;-47
2023/03/03 01:39:00;;;;;;;78.45;30.38;;;3.70;64.90;;;-1.42;100.00;95614.13;4950604;28;20034;-48
2023/03/03 01:41:31;;;;;;;78.25;30.05;;;3.80;65.00;;;-1.41;100.00;95611.34;4945254;28;20030;-49
2023/03/03 01:43:58;;;;;;;88.05;31.48;;;3.80;64.90;;;-1.32;100.00;95616.41;4949843;28;20034;-47
2023/03/03 01:47:19;;;;;;;79.80;32.45;;;3.90;64.90;;;-1.25;100.00;95615.47;4950860;28;20022;-47
2023/03/03 01:50:10;;;;;;;67.30;27.90;;;3.90;64.90;;;-1.20;100.00;95609.66;4977622;28;20045;-48
2023/03/03 01:52:43;;;;;;;81.53;31.27;;;4.00;64.90;;;-1.17;100.00;95614.50;4954369;28;20608;-47
2023/03/03 01:55:32;;;;;;;81.53;31.75;;;4.00;64.90;;;-1.11;100.00;95607.72;4968719;28;20030;-47
2023/03/03 01:58:25;;;;;;;80.53;30.58;;;4.00;64.90;;;-1.09;100.00;95609.16;4935788;28;20054;-48
2023/03/03 02:01:01;;;;;;;76.15;30.38;;;4.10;64.80;;;-1.08;100.00;95609.94;4936741;28;20033;-47
2023/03/03 02:03:32;;;;;;;80.65;30.58;;;4.20;64.80;;;-1.03;100.00;95610.19;4958043;28;20142;-47
2023/03/03 02:06:10;;;;;;;77.30;29.55;;;4.20;64.70;;;-0.98;100.00;95610.41;4947478;28;20077;-47
2023/03/03 02:09:16;;;;;;;70.10;29.98;;;4.30;64.70;;;-0.97;100.00;95607.63;4949480;28;20081;-48
2023/03/03 02:11:49;;;;;;;71.03;27.98;;;4.40;64.60;;;-0.94;100.00;95609.84;4952864;28;20497;-47
2023/03/03 02:14:18;;;;;;;79.20;31.80;;;4.40;64.50;;;-0.87;100.00;95607.28;4953863;28;20041;-47
2023/03/03 02:16:53;;;;;;;75.35;30.77;;;4.40;64.50;;;-0.82;100.00;95610.09;4966260;28;20036;-51
2023/03/03 02:19:57;;;;;;;66.43;25.65;;;4.40;64.50;;;-0.78;100.00;95603.50;4953058;28;20042;-48
2023/03/03 02:22:43;;;;;;;69.88;27.67;;;4.50;64.50;;;-0.79;100.00;95609.72;4953738;28;20043;-47
2023/03/03 02:25:28;;;;;;;73.50;29.02;;;4.50;64.50;;;-0.75;100.00;95605.75;4930171;28;20049;-50
2023/03/03 02:28:02;;;;;;;79.75;31.25;;;4.50;64.50;;;-0.71;100.00;95609.56;4954350;28;20073;-49
2023/03/03 02:30:28;;;;;;;65.40;28.30;;;4.50;64.40;;;-0.68;100.00;95603.16;4937410;28;20038;-48
2023/03/03 02:32:53;;;;;;;78.63;30.02;;;4.60;64.40;;;-0.68;100.00;95602.34;4954970;28;20015;-48
2023/03/03 02:35:37;;;;;;;78.32;31.40;;;4.60;64.40;;;-0.67;100.00;95603.97;4953356;28;20035;-49
2023/03/03 02:38:35;;;;;;;63.72;27.75;;;4.70;64.40;;;-0.66;100.00;95603.75;4946426;28;20024;-52
2023/03/03 02:41:46;;;;;;;72.70;29.63;;;4.70;65.10;;;-0.62;100.00;95597.16;4946933;28;20030;-48
2023/03/03 02:44:29;;;;;;;66.25;27.80;;;4.70;64.30;;;-0.59;100.00;95599.38;4950376;28;20114;-48
2023/03/03 02:46:59;;;;;;;70.50;29.88;;;4.70;64.30;;;-0.54;100.00;95602.19;4953902;28;20109;-47
2023/03/03 02:49:35;;;;;;;75.00;29.90;;;4.70;64.30;;;-0.54;100.00;95596.16;4953634;28;20030;-48
2023/03/03 02:52:08;;;;;;;74.20;30.67;;;4.70;64.30;;;-0.55;100.00;95603.22;4935791;28;20126;-47
2023/03/03 02:54:35;;;;;;;74.38;30.92;;;4.70;64.30;;;-0.52;100.00;95602.81;4942610;28;20109;-48
2023/03/03 02:57:06;;;;;;;78.25;31.25;;;4.80;64.30;;;-0.47;100.00;95603.06;4952673;28;20572;-49
2023/03/03 02:59:32;;;;;;;75.70;31.25;;;4.80;64.30;;;-0.47;100.00;95604.84;4953266;28;20485;-50
2023/03/03 03:01:58;;;;;;;75.30;29.75;;;4.80;64.30;;;-0.44;100.00;95608.88;4935539;28;20023;-48
2023/03/03 03:04:32;;;;;;;73.25;30.95;;;4.80;64.30;;;-0.45;100.00;95602.84;4939918;28;20030;-49
2023/03/03 03:06:59;;;;;;;62.25;26.73;;;4.80;64.30;;;-0.43;100.00;95608.72;4941530;28;20112;-48
2023/03/03 03:09:30;;;;;;;67.35;29.88;;;4.90;64.30;;;-0.42;100.00;95610.31;4952729;28;20441;-49
2023/03/03 03:11:58;;;;;;;78.22;31.25;;;4.80;64.20;;;-0.44;100.00;95604.44;4953207;28;20117;-47
2023/03/03 03:14:23;;;;;;;70.70;27.90;;;4.90;64.30;;;-0.42;100.00;95601.66;4935415;28;20035;-48
2023/03/03 03:16:52;;;;;;;70.55;30.15;;;4.90;64.20;;;-0.38;100.00;95611.53;4934161;29;20025;-49
2023/03/03 03:19:24;;;;;;;68.78;29.85;;;4.90;64.30;;;-0.36;100.00;95603.50;4933086;29;20039;-47
2023/03/03 03:22:19;;;;;;;73.53;30.60;;;4.90;64.30;;;-0.31;100.00;95604.53;4934220;29;20034;-49
2023/03/03 03:24:51;;;;;;;75.75;31.23;;;4.90;64.40;;;-0.28;100.00;95613.81;4952643;23;20042;-48
2023/03/03 03:27:23;;;;;;;77.15;31.88;;;4.90;64.40;;;-0.27;100.00;95604.94;4954014;28;20035;-45
2023/03/03 03:29:52;;;;;;;72.75;29.75;;;5.00;64.40;;;-0.28;100.00;95598.09;4936993;28;20034;-52
2023/03/03 03:32:21;;;;;;;68.10;31.20;;;5.00;64.30;;;-0.27;100.00;95595.28;4953212;28;20038;-47
2023/03/03 03:34:47;;;;;;;68.20;29.13;;;5.00;64.30;;;-0.27;100.00;95590.03;4953251;28;20058;-53
2023/03/03 03:37:16;;;;;;;75.63;30.88;;;5.00;64.30;;;-0.24;100.00;95597.50;4953275;28;20057;-47
2023/03/03 03:39:42;;;;;;;71.97;32.08;;;5.10;64.30;;;-0.20;100.00;95594.50;4952617;28;20543;-46
2023/03/03 03:42:11;;;;;;;73.93;31.15;;;5.10;64.20;;;-0.21;100.00;95596.31;4953848;28;20113;-50
2023/03/03 03:44:37;;;;;;;80.07;31.60;;;5.10;65.00;;;-0.17;100.00;95589.66;4952796;28;20036;-45
2023/03/03 03:47:02;;;;;;;69.05;30.10;;;5.10;64.20;;;-0.18;100.00;95595.09;4936959;28;20454;-50
2023/03/03 03:49:31;;;;;;;68.35;27.65;;;5.10;64.20;;;-0.22;100.00;95596.47;4935680;28;20125;-55
2023/03/03 03:51:57;;;;;;;78.47;31.85;;;5.10;64.10;;;-0.21;100.00;95593.69;4933566;29;20023;-49
2023/03/03 03:54:23;;;;;;;79.88;32.35;;;5.10;64.20;;;-0.17;100.00;95586.25;4944384;28;20034;-47
2023/03/03 03:56:49;;;;;;;76.25;31.15;;;5.10;64.20;;;-0.20;100.00;95578.78;4953409;28;20038;-47
2023/03/03 03:59:14;;;;;;;78.00;31.23;;;5.10;64.20;;;-0.18;100.00;95588.06;4953482;28;20109;-51
2023/03/03 04:01:40;;;;;;;67.55;27.88;;;5.10;64.20;;;-0.14;100.00;95583.22;4911953;28;20019;-48
2023/03/03 04:04:12;;;;;;;77.43;30.85;;;5.10;64.30;;;-0.11;100.00;95583.63;4953540;28;20026;-49
2023/03/03 04:06:50;;;;;;;74.60;32.17;;;5.10;64.30;;;-0.10;100.00;95574.75;4923814;28;20039;-47
2023/03/03 04:09:16;;;;;;;74.30;31.25;;;5.20;64.30;;;-0.13;100.00;95582.22;4952457;28;20054;-49
2023/03/03 04:11:42;;;;;;;77.03;30.67;;;5.20;64.30;;;-0.15;100.00;95590.28;4951993;28;20050;-51
2023/03/03 04:14:13;;;;;;;74.30;31.63;;;5.20;64.30;;;-0.10;100.00;95593.09;4950956;28;20057;-45
2023/03/03 04:16:39;;;;;;;75.82;30.55;;;5.20;64.30;;;-0.09;100.00;95593.94;4960635;28;20033;-49
2023/03/03 04:19:05;;;;;;;76.32;32.70;;;5.20;64.30;;;-0.09;100.00;95592.13;4918263;28;20034;-47
2023/03/03 04:21:31;;;;;;;74.78;31.17;;;5.20;64.20;;;-0.08;100.00;95595.53;4919623;28;20061;-52
2023/03/03 04:23:59;;;;;;;70.30;28.98;;;5.20;64.20;;;-0.10;100.00;95598.34;4952718;28;20390;-47
2023/03/03 04:26:25;;;;;;;74.07;31.55;;;5.20;64.20;;;-0.08;100.00;95600.78;4957659;28;20482;-52
2023/03/03 04:28:58;;;;;;;79.15;32.90;;;5.20;64.20;;;-0.04;100.00;95594.13;4935376;28;20429;-46
2023/03/03 04:31:30;;;;;;;70.03;31.17;;;5.30;64.30;;;-0.14;100.00;95594.50;4934004;28;20026;-46
2023/03/03 04:34:04;;;;;;;75.80;31.50;;;5.30;64.20;;;-0.10;100.00;95608.00;4934413;28;20038;-51
2023/03/03 04:36:33;;;;;;;73.97;30.42;;;5.30;64.20;;;-0.05;100.00;95606.41;4933707;28;20281;-47
2023/03/03 04:38:59;;;;;;;70.85;29.90;;;5.30;64.20;;;-0.05;100.00;95606.41;4918900;28;20066;-51
2023/03/03 04:41:28;;;;;;;75.55;31.50;;;5.20;64.10;;;-0.04;100.00;95605.41;4934953;28;20023;-46
2023/03/03 04:43:53;;;;;;;76.45;31.65;;;5.30;64.20;;;-0.01;100.00;95598.97;4950628;28;20081;-48
2023/03/03 04:46:22;;;;;;;75.95;31.65;;;5.30;64.20;;;-0.01;100.00;95599.78;4934749;28;20018;-47
2023/03/03 04:48:48;;;;;;;80.75;32.47;;;5.30;64.20;;;0.01;100.00;95598.78;4933282;28;20026;-48
2023/03/03 04:51:15;;;;;;;72.43;30.30;;;5.30;64.20;;;0.03;100.00;95596.75;4951945;28;20127;-47
2023/03/03 04:53:41;;;;;;;77.50;33.25;;;5.30;64.20;;;0.03;100.00;95599.38;4934505;28;20061;-46
2023/03/03 04:56:07;;;;;;;79.47;32.13;;;5.40;64.20;;;0.05;100.00;95603.41;4949559;28;20026;-49
2023/03/03 04:58:33;;;;;;;72.65;30.25;;;5.40;64.10;;;0.06;100.00;95609.47;4951678;28;20027;-53
2023/03/03 05:01:01;;;;;;;74.32;30.45;;;5.40;64.10;;;0.06;100.00;95605.03;4951938;28;20409;-50
2023/03/03 05:03:30;;;;;;;73.53;29.65;;;5.40;64.20;;;0.08;100.00;95602.22;4950686;28;20771;-48
2023/03/03 05:05:56;;;;;;;72.65;31.23;;;5.40;64.20;;;0.09;100.00;95604.63;4952686;28;20033;-48
2023/03/03 05:08:28;;;;;;;74.55;30.60;;;5.40;64.20;;;0.03;100.00;95605.41;4962807;28;20057;-47
2023/03/03 05:11:04;;;;;;;75.20;31.67;;;5.40;64.20;;;-0.01;100.00;95610.25;4954105;28;20026;-47
2023/03/03 05:13:30;;;;;;;83.70;34.78;;;5.40;64.20;;;0.08;100.00;95616.13;4950312;28;20327;-55
2023/03/03 05:16:03;;;;;;;82.00;32.47;;;5.40;64.20;;;0.08;100.00;95613.50;4934375;28;20033;-47
2023/03/03 05:18:29;;;;;;;;;;;5.40;64.30;;;0.09;100.00;95612.47;4933947;28;20081;-52
2023/03/03 05:20:58;;;;;;;74.38;30.48;;;5.40;64.10;;;0.12;100.00;95611.28;4930828;29;20448;-46
2023/03/03 05:23:33;;;;;;;76.07;31.17;;;5.40;64.30;;;0.14;100.00;95625.00;4932724;28;20038;-48
2023/03/03 05:26:02;;;;;;;71.93;30.48;;;5.30;64.20;;;0.15;100.00;95616.13;4950783;28;20429;-53
2023/03/03 05:28:32;;;;;;;68.05;29.48;;;5.40;64.30;;;0.16;100.00;95618.56;4949871;28;20030;-47
2023/03/03 05:31:00;;;;;;;83.97;32.45;;;5.40;64.30;;;0.15;100.00;95619.56;4950316;28;20088;-46
2023/03/03 05:33:29;;;;;;;79.85;33.45;;;5.40;64.30;;;0.15;100.00;95616.94;4933234;28;20061;-50
2023/03/03 05:36:01;;;;;;;81.18;32.75;;;5.40;64.30;;;0.18;100.00;95628.84;4951418;28;20022;-46
2023/03/03 05:38:27;;;;;;;83.35;35.33;;;5.40;64.30;;;0.14;100.00;95631.03;4917471;28;20042;-50
2023/03/03 05:40:56;;;;;;;78.80;33.25;;;5.40;64.30;;;0.15;100.00;95629.22;4950865;28;20385;-45
2023/03/03 05:43:32;;;;;;;83.50;34.65;;;5.40;64.30;;;0.15;100.00;95622.16;4930727;28;20038;-45
2023/03/03 05:46:01;;;;;;;84.72;34.67;;;5.40;64.30;;;0.17;100.00;95625.41;4933801;29;20492;-46
2023/03/03 05:48:33;;;;;;;70.32;31.15;;;5.40;64.30;;;0.14;100.00;95631.03;4947944;28;20570;-52
2023/03/03 05:51:00;;;;;;;76.72;33.17;;;5.40;64.30;;;0.19;100.00;95628.66;4942253;28;20060;-46
2023/03/03 05:53:28;;;;;;;74.90;30.88;;;5.40;64.30;;;0.23;100.00;95626.44;4935910;28;20031;-46
2023/03/03 05:56:00;;;;;;;79.20;31.50;;;5.50;64.40;;;0.22;100.00;95627.44;4949644;28;20524;-45
2023/03/03 05:58:29;;;;;;;77.57;33.90;;;5.50;64.40;;;0.22;100.00;95630.88;4935788;28;20031;-49
2023/03/03 06:01:01;;;;;;;78.65;33.28;;;5.50;64.40;;;0.19;100.00;95633.09;4933676;29;20289;-46
2023/03/03 06:03:33;;;;;;;73.80;32.10;;;5.50;64.30;;;0.22;100.00;95635.31;4932848;29;20655;-45
2023/03/03 06:05:59;;;;;;;79.72;34.17;;;5.50;64.30;;;0.23;100.00;95637.72;4951227;29;20042;-47
2023/03/03 06:08:25;;;;;;;93.50;34.42;;;5.50;64.30;;;0.25;100.00;95637.50;4950332;29;20026;-48
2023/03/03 06:10:51;;;;;;;84.82;34.40;;;5.50;64.30;;;0.28;100.00;95644.16;4955901;28;20034;-46
2023/03/03 06:13:17;;;;;;;80.97;32.55;;;5.50;64.30;;;0.30;100.00;95642.97;4949960;29;20382;-55
2023/03/03 06:16:05;;;;;;;67.28;29.00;;;5.60;64.30;;;0.29;100.00;95649.22;4933725;29;20594;-48
2023/03/03 06:18:30;;;;;;;69.30;30.30;;;5.60;64.30;;;0.32;100.00;95648.03;4931719;28;20130;-47
2023/03/03 06:20:56;;;;;;;77.15;33.20;;;5.60;64.20;;;0.36;100.00;95651.84;4923511;29;20034;-50
2023/03/03 06:23:22;;;;;;;75.15;31.85;;;5.60;64.20;;;0.38;100.00;95657.72;4932686;29;20033;-46
2023/03/03 06:25:48;;;;;;;77.53;32.33;;;5.70;64.20;;;0.35;100.00;95658.91;4933398;28;20138;-47
2023/03/03 06:28:14;;;;;;;78.65;31.90;;;5.70;64.20;;;0.36;100.00;95664.97;4933484;29;20081;-46
2023/03/03 06:30:40;;;;;;;84.80;32.92;;;5.70;64.20;;;0.36;100.00;95663.13;4931565;28;20026;-47
2023/03/03 06:33:06;;;;;;;77.70;32.30;;;5.70;64.10;;;0.41;100.00;95668.59;4949873;29;20050;-51
2023/03/03 06:35:34;;;;;;;76.93;32.17;;;5.70;64.10;;;0.41;100.00;95673.84;4933052;29;20034;-52
2023/03/03 06:38:00;;;;;;;82.00;33.08;;;5.70;64.10;;;0.43;100.00;95671.81;4931397;29;20053;-46
2023/03/03 06:40:35;;;;;;;71.10;30.58;;;5.70;64.10;;;0.40;100.00;95682.69;4948382;29;20401;-47
2023/03/03 06:43:02;;;;;;;75.10;30.67;;;5.70;64.00;;;0.39;100.00;95681.09;4937186;29;20030;-53
2023/03/03 06:45:30;;;;;;;78.20;31.67;;;5.70;64.00;;;0.42;100.00;95672.84;4942867;29;21148;-50
2023/03/03 06:47:56;;;;;;;86.60;33.33;;;5.80;64.00;;;0.44;100.00;95670.81;4933350;29;20025;-49
2023/03/03 06:50:24;;;;;;;79.00;31.85;;;5.80;64.00;;;0.43;100.00;95671.81;4900183;29;20045;-49
2023/03/03 06:53:11;;;;;;;72.93;31.42;;;5.80;63.90;;;0.48;100.00;95675.66;4917203;29;20023;-49
2023/03/03 06:55:37;;;;;;;70.70;30.17;;;5.90;63.90;;;0.51;100.00;95677.91;4932166;29;20498;-47
2023/03/03 06:58:23;;;;;;;79.22;33.42;;;5.90;63.90;;;0.51;100.00;95688.38;4936317;28;20058;-48
2023/03/03 07:01:00;;;;;;;73.80;30.92;;;5.90;63.90;;;0.51;100.00;95691.81;4939819;28;20026;-53
2023/03/03 07:03:35;;;;;;;76.38;32.35;;;5.90;63.80;;;0.54;100.00;95694.03;4951926;28;20030;-49
2023/03/03 07:06:25;;;;;;;71.45;31.23;;;6.00;63.80;;;0.54;100.00;95701.09;4935701;28;20053;-46
2023/03/03 07:08:53;;;;;;;73.45;32.67;;;6.00;63.80;;;0.58;100.00;95697.84;4946989;28;20031;-51
2023/03/03 07:11:22;;;;;;;72.55;32.38;;;6.00;63.70;;;0.62;100.00;95704.31;4934595;28;20046;-48
2023/03/03 07:13:54;;;;;;;77.20;32.30;;;6.00;63.60;;;0.63;100.00;95705.94;4933854;28;20031;-49
2023/03/03 07:16:26;;;;;;;74.45;31.15;;;6.00;63.50;;;0.54;98.77;95707.13;4938718;28;20436;-51
2023/03/03 07:19:02;;;;;;;75.43;32.07;;;6.00;63.50;;;0.55;97.90;95714.00;4952996;28;20039;-46
2023/03/03 07:21:35;;;;;;;67.72;30.77;;;6.10;63.50;;;0.59;97.87;95709.16;4953427;28;20030;-51
2023/03/03 07:24:29;;;;;;;73.18;29.20;;;6.00;63.30;;;0.62;98.08;95706.13;4902764;28;26099;-48
2023/03/03 07:27:24;;;;;;;68.63;29.52;;;6.10;63.30;;;0.65;97.43;95708.34;4927198;29;20025;-49
2023/03/03 07:30:28;;;;;;;68.93;29.70;;;6.10;63.30;;;0.54;96.73;95717.63;4915393;29;20565;-49
2023/03/03 07:33:00;;;;;;;68.97;30.60;;;6.10;63.20;;;0.43;96.78;95726.06;4892345;29;20047;-48
2023/03/03 07:35:43;;;;;;;77.80;31.17;;;6.10;63.10;;;0.42;97.08;95727.06;4925176;29;20067;-51
2023/03/03 07:38:38;;;;;;;64.00;29.35;;;6.10;63.00;;;0.55;96.95;95727.09;4902903;29;20286;-55
2023/03/03 07:41:33;;;;;;;70.45;30.35;;;6.10;63.00;;;0.59;96.66;95717.00;4929801;29;20066;-47
2023/03/03 07:44:35;;;;;;;67.28;30.20;;;6.10;62.90;;;0.69;96.54;95720.88;4886847;29;20430;-50
2023/03/03 07:47:34;;;;;;;62.58;30.27;;;6.20;63.00;;;0.76;96.44;95723.50;4913124;29;20031;-51
2023/03/03 07:50:20;;;;;;;63.63;28.42;;;6.20;62.90;;;0.77;95.52;95734.81;4914192;29;20034;-52
2023/03/03 07:53:27;;;;;;;70.13;29.40;;;6.30;62.90;;;0.80;95.70;95731.78;4914113;29;20055;-50
2023/03/03 07:55:54;;;;;;;66.28;30.27;;;6.40;63.50;;;0.88;96.15;95736.84;4922852;29;20023;-56
2023/03/03 07:58:36;;;;;;;63.13;29.90;;;6.40;62.70;;;0.89;96.12;95727.97;4911837;29;20035;-54
2023/03/03 08:01:50;;;;;;;68.68;30.50;;;6.50;62.70;;;0.95;96.22;95736.84;4912310;29;20513;-53
2023/03/03 08:04:51;;;;;;;66.10;30.27;;;6.70;62.50;;;0.99;95.66;95741.50;4914229;29;20145;-55
2023/03/03 08:07:22;;;;;;;67.13;30.23;;;6.70;62.40;;;1.06;95.40;95739.66;4909799;29;20460;-51
2023/03/03 08:11:00;;;;;;;71.72;32.35;;;6.80;62.40;;;1.13;95.36;95737.06;4912452;29;20026;-55
2023/03/03 08:13:38;;;;;;;67.28;31.20;;;6.80;62.20;;;1.21;94.75;95739.47;4914782;29;20174;-48
2023/03/03 08:16:13;;;;;;;72.78;31.30;;;6.90;62.20;;;1.25;94.55;95738.06;4913625;29;20031;-55
2023/03/03 08:18:49;;;;;;;79.45;33.17;;;7.00;62.00;;;1.25;93.35;95742.50;4904313;29;20391;-52
2023/03/03 08:21:26;;;;;;;71.57;32.05;;;7.00;61.80;;;1.28;93.62;95736.84;4914174;29;20028;-50
2023/03/03 08:24:01;;;;;;;68.47;29.80;;;7.10;61.70;;;1.33;93.36;95743.13;4935044;28;20101;-52
2023/03/03 08:26:30;;;;;;;69.88;31.92;;;7.00;61.50;;;1.29;92.89;95744.53;4932383;28;20118;-53
2023/03/03 08:28:56;;;;;;;75.85;33.70;;;7.10;61.50;;;1.34;92.97;95746.53;4933066;29;20545;-49
2023/03/03 08:31:22;;;;;;;69.07;31.75;;;7.10;61.40;;;1.40;93.00;95745.72;4933338;28;20106;-54
2023/03/03 08:34:15;;;;;;;69.28;30.83;;;7.20;61.40;;;1.41;92.35;95741.28;4933735;29;20050;-49
2023/03/03 08:36:43;;;;;;;73.85;32.28;;;7.20;61.20;;;1.45;92.19;95740.69;4916057;29;20019;-53
2023/03/03 08:39:28;;;;;;;66.93;30.83;;;7.20;61.20;;;1.49;92.26;95741.09;4917339;29;20035;-55
2023/03/03 08:41:56;;;;;;;65.75;31.15;;;7.30;61.10;;;1.54;92.39;95736.84;4949188;28;20031;-53
2023/03/03 08:44:29;;;;;;;70.30;31.75;;;7.30;61.10;;;1.60;91.88;95741.28;4928533;29;20724;-49
2023/03/03 08:47:03;;;;;;;61.10;30.05;;;7.40;61.00;;;1.61;91.81;95747.34;4933085;29;20084;-49
2023/03/03 08:49:32;;;;;;;65.47;31.00;;;7.50;60.90;;;1.60;91.08;95740.50;4932227;29;20023;-48
2023/03/03 08:52:00;;;;;;;72.78;31.83;;;7.50;60.70;;;1.63;91.34;95750.59;4933686;29;20031;-49
2023/03/03 08:54:28;;;;;;;63.80;29.58;;;7.50;60.60;;;1.68;90.63;95748.13;4928720;29;20039;-50
2023/03/03 08:57:03;;;;;;;67.10;32.33;;;7.60;60.60;;;1.73;90.94;95750.16;4932522;29;20026;-55
2023/03/03 08:59:29;;;;;;;70.72;31.75;;;7.60;60.40;;;1.72;90.69;95746.69;4934212;29;20058;-58
2023/03/03 09:02:03;;;;;;;67.43;31.33;;;7.60;60.40;;;1.73;90.29;95752.78;4931675;29;20057;-50
2023/03/03 09:04:29;;;;;;;68.97;30.98;;;7.70;60.30;;;1.75;90.48;95763.88;4933240;29;20034;-59
2023/03/03 09:06:55;;;;;;;64.80;31.98;;;7.70;60.30;;;1.79;90.22;95770.34;4928524;28;20054;-50
2023/03/03 09:09:21;;;;;;;64.53;31.90;;;7.70;60.20;;;1.80;89.89;95771.97;4928533;29;20110;-51
2023/03/03 09:12:01;;;;;;;64.18;29.63;;;7.80;60.10;;;1.80;89.37;95769.34;4916390;29;20058;-49
2023/03/03 09:14:28;;;;;;;66.40;30.83;;;7.80;60.00;;;1.79;89.93;95763.28;4936705;28;20486;-52
2023/03/03 09:17:02;;;;;;;67.18;30.75;;;7.80;59.90;;;1.82;89.11;95770.75;4916414;29;20374;-52
2023/03/03 09:19:35;;;;;;;64.35;29.25;;;7.80;59.80;;;1.83;89.56;95763.66;4933092;29;20126;-59
2023/03/03 09:22:23;;;;;;;66.40;30.10;;;7.80;59.90;;;1.74;89.18;95764.91;4914160;29;20046;-51
2023/03/03 09:24:56;;;;;;;63.25;30.40;;;7.90;59.80;;;1.73;89.18;95769.34;4927553;29;20039;-52
2023/03/03 09:27:35;;;;;;;66.32;30.35;;;7.90;59.70;;;1.85;88.80;95761.66;4927912;29;20027;-51
2023/03/03 09:30:41;;;;;;;61.70;30.75;;;8.00;59.60;;;1.94;88.50;95765.66;4924620;29;20035;-57
2023/03/03 09:33:50;;;;;;;59.80;27.92;;;8.00;59.50;;;1.96;88.55;95766.25;4928883;29;20443;-55
2023/03/03 09:36:36;;;;;;;66.00;31.02;;;8.10;59.50;;;1.94;88.79;95768.28;4941484;28;20108;-54
2023/03/03 09:39:22;;;;;;;61.38;29.30;;;8.20;59.50;;;2.06;88.92;95765.84;4928624;28;20050;-58
2023/03/03 09:42:32;;;;;;;62.78;29.23;;;8.30;59.40;;;2.14;87.79;95770.88;4913637;29;20050;-53
2023/03/03 09:45:58;;;;;;;59.67;29.33;;;8.40;59.30;;;2.24;87.00;95773.06;4929346;29;20027;-52
2023/03/03 09:48:54;;;;;;;62.17;30.40;;;8.60;59.20;;;2.34;88.01;95765.53;4918850;29;20030;-53
2023/03/03 09:51:29;;;;;;;61.97;29.65;;;8.70;59.50;;;2.48;86.60;95768.94;4930492;29;20607;-50
2023/03/03 09:54:27;;;;;;;64.30;29.45;;;8.80;58.80;;;2.64;85.91;95772.91;4929972;29;20059;-53
2023/03/03 09:57:16;;;;;;;61.17;31.25;;;9.00;58.70;;;2.75;85.59;95766.97;4942478;28;20026;-52
2023/03/03 10:00:18;;;;;;;61.17;30.00;;;9.20;58.50;;;2.90;85.36;95764.88;4913857;29;20430;-52
2023/03/03 10:03:45;;;;;;;62.37;28.30;;;9.30;58.40;;;3.12;84.99;95761.91;4929231;29;20102;-56
2023/03/03 10:06:30;;;;;;;57.75;29.02;;;9.60;58.30;;;3.23;82.95;95759.38;4927267;29;20026;-55
2023/03/03 10:10:21;;;;;;;56.78;29.30;;;9.80;58.20;;;3.29;80.81;95764.81;4923444;29;20038;-50
2023/03/03 10:13:45;;;;;;;63.38;29.88;;;9.90;57.80;;;3.20;81.12;95767.72;4929016;29;20953;-54
2023/03/03 10:16:57;;;;;;;61.90;30.83;;;10.00;57.50;;;3.36;81.88;95768.22;4912658;29;20063;-51
2023/03/03 10:19:39;;;;;;;57.08;28.75;;;10.10;57.20;;;3.54;80.69;95767.44;4934917;29;20039;-53
2023/03/03 10:22:54;;;;;;;62.42;30.80;;;10.20;57.10;;;3.68;80.22;95764.50;4927893;29;20111;-54
2023/03/03 10:26:36;;;;;;;57.15;29.42;;;10.40;56.80;;;3.79;79.03;95765.63;4938720;29;20049;-55
2023/03/03 10:29:44;;;;;;;55.67;28.17;;;10.70;56.60;;;4.03;78.20;95768.41;4917693;29;20497;-53
2023/03/03 10:33:15;;;;;;;56.13;29.80;;;11.00;56.40;;;4.22;79.06;95771.88;4926488;29;20070;-50
2023/03/03 10:36:02;;;;;;;61.80;29.50;;;11.30;56.20;;;4.32;76.89;95772.94;4924658;29;20043;-53
2023/03/03 10:39:09;;;;;;;59.38;30.23;;;11.50;55.80;;;4.48;76.59;95763.66;4933295;29;20054;-55
2023/03/03 10:42:56;;;;;;;55.85;29.13;;;11.60;55.50;;;4.63;75.52;95766.69;4933778;29;20035;-52
2023/03/03 10:45:55;;;;;;;61.78;31.60;;;11.70;55.20;;;4.68;76.08;95765.25;4931577;29;20035;-52
2023/03/03 10:48:54;;;;;;;57.13;30.58;;;11.90;55.00;;;4.72;73.82;95775.13;4921619;29;20032;-56
2023/03/03 10:51:39;;;;;;;60.53;31.52;;;12.00;54.70;;;4.88;74.08;95771.06;4944199;28;20039;-51
2023/03/03 10:54:46;;;;;;;57.30;30.77;;;12.10;54.50;;;5.00;74.60;95776.38;4927196;29;20041;-52
2023/03/03 10:58:34;;;;;;;55.97;29.23;;;12.20;54.30;;;4.58;74.21;95771.84;4912247;29;20565;-52
2023/03/03 11:01:30;;;;;;;54.50;29.25;;;12.30;54.00;;;4.49;75.32;95770.53;4930968;29;20101;-54